Time;durP1;ratioP1;P1;durP2;ratioP2;P2;SDS_P1;SDS_P2;PMS_P1;PMS_P2;Temp;Humidity;BMP_temperature;BMP_pressure;BME280_temperature;BME280_humidity;BME280_pressure;Samples;Min_cycle;Max_cycle;Signal;HPM_P1;HPM_P2
2021/06/17 00:00:50;;;;;;;4.18;3.78;;;21.40;50.50;;;;;;4940028;29;20198;-80
2021/06/17 00:03:18;;;;;;;3.80;3.38;;;21.30;50.50;;;;;;4939957;29;20360;-80
2021/06/17 00:05:45;;;;;;;4.20;3.53;;;21.40;50.50;;;;;;4923876;29;20189;-80
2021/06/17 00:08:11;;;;;;;4.07;3.65;;;21.30;50.50;;;;;;4956360;29;20149;-80
2021/06/17 00:10:39;;;;;;;4.53;3.70;;;21.30;50.50;;;;;;4957759;29;20169;-80
2021/06/17 00:13:09;;;;;;;5.03;3.92;;;21.40;50.50;;;;;;4940513;29;20181;-80
2021/06/17 00:15:36;;;;;;;3.80;3.40;;;21.30;50.40;;;;;;4939938;29;20557;-81
2021/06/17 00:18:04;;;;;;;3.75;3.35;;;21.40;50.50;;;;;;4939278;29;20185;-80
2021/06/17 00:20:31;;;;;;;4.65;3.60;;;21.40;50.50;;;;;;4923620;29;20217;-80
2021/06/17 00:22:57;;;;;;;3.83;3.42;;;21.30;50.50;;;;;;4939476;29;20227;-81
2021/06/17 00:25:22;;;;;;;3.80;3.40;;;21.30;50.50;;;;;;4939991;29;20820;-80
2021/06/17 00:27:49;;;;;;;4.07;3.67;;;21.30;50.50;;;;;;4955990;29;20165;-80
2021/06/17 00:30:17;;;;;;;3.80;3.33;;;21.30;50.60;;;;;;4955976;29;20153;-81
2021/06/17 00:32:44;;;;;;;4.75;3.60;;;21.30;50.50;;;;;;4923599;29;20215;-81
2021/06/17 00:35:12;;;;;;;4.55;3.70;;;21.30;50.60;;;;;;4939097;29;20285;-80
2021/06/17 00:37:39;;;;;;;4.13;3.35;;;21.30;50.60;;;;;;4923553;29;20243;-80
2021/06/17 00:40:08;;;;;;;4.15;3.65;;;21.30;50.60;;;;;;4938822;29;20197;-80
2021/06/17 00:42:36;;;;;;;4.35;3.40;;;21.30;50.60;;;;;;4923124;29;20213;-80
2021/06/17 00:45:06;;;;;;;4.50;3.80;;;21.30;50.60;;;;;;4938931;29;20235;-80
2021/06/17 00:47:32;;;;;;;3.97;3.50;;;21.40;50.60;;;;;;4923498;29;20644;-80
2021/06/17 00:49:57;;;;;;;3.88;3.42;;;21.30;50.60;;;;;;4955696;29;20176;-80
2021/06/17 00:52:24;;;;;;;3.75;3.38;;;21.30;50.60;;;;;;4939687;29;20564;-80
2021/06/17 00:54:50;;;;;;;4.38;3.58;;;21.30;50.70;;;;;;4955411;29;20169;-80
2021/06/17 00:57:17;;;;;;;4.70;3.80;;;21.30;50.60;;;;;;4956764;29;20161;-81
2021/06/17 00:59:42;;;;;;;3.72;3.30;;;21.30;50.70;;;;;;4940000;29;20170;-80
2021/06/17 01:02:08;;;;;;;3.95;3.53;;;21.30;50.60;;;;;;4956858;29;20208;-80
2021/06/17 01:04:34;;;;;;;4.55;3.83;;;21.30;50.60;;;;;;4955444;29;20157;-80
2021/06/17 01:07:00;;;;;;;4.50;3.78;;;21.30;50.70;;;;;;4955384;29;20162;-80
2021/06/17 01:10:05;;;;;;;4.63;3.40;;;21.30;50.70;;;;;;4955326;29;20161;-79
2021/06/17 01:12:45;;;;;;;4.45;3.60;;;21.30;50.70;;;;;;4928957;29;20185;-81
2021/06/17 01:15:15;;;;;;;4.50;3.85;;;21.30;50.70;;;;;;4956508;29;20212;-82
2021/06/17 01:17:43;;;;;;;4.47;3.58;;;21.30;50.60;;;;;;4907260;29;20191;-82
2021/06/17 01:20:29;;;;;;;4.07;3.45;;;21.30;50.70;;;;;;4939177;29;20180;-82
2021/06/17 01:23:21;;;;;;;4.20;3.60;;;21.20;50.70;;;;;;4955050;29;20668;-81
2021/06/17 01:26:21;;;;;;;4.30;3.60;;;21.30;50.70;;;;;;4955772;29;20312;-81
2021/06/17 01:28:52;;;;;;;4.35;3.47;;;21.30;50.80;;;;;;4941378;29;20191;-82
2021/06/17 01:31:24;;;;;;;4.60;3.72;;;21.30;50.70;;;;;;4922389;29;20177;-81
2021/06/17 01:33:51;;;;;;;3.83;3.42;;;21.30;50.80;;;;;;4938281;29;20193;-82
2021/06/17 01:36:23;;;;;;;3.90;3.50;;;21.30;50.70;;;;;;4955947;29;20185;-81
2021/06/17 01:38:52;;;;;;;3.97;3.58;;;21.30;50.70;;;;;;4955246;29;20240;-82
2021/06/17 01:41:19;;;;;;;3.95;3.55;;;21.30;50.80;;;;;;4938727;29;20203;-82
2021/06/17 01:43:45;;;;;;;4.25;3.78;;;21.30;50.80;;;;;;4955722;29;20157;-80
2021/06/17 01:46:11;;;;;;;3.70;3.22;;;21.30;50.80;;;;;;4954467;29;20301;-80
2021/06/17 01:48:39;;;;;;;4.03;3.63;;;21.30;50.80;;;;;;4955896;29;20153;-82
2021/06/17 01:51:09;;;;;;;4.78;3.60;;;21.30;50.90;;;;;;4937890;29;20189;-81
2021/06/17 01:53:37;;;;;;;4.90;3.80;;;21.30;50.90;;;;;;4937146;29;20236;-80
2021/06/17 01:56:05;;;;;;;4.07;3.67;;;21.30;50.90;;;;;;4937771;29;20181;-81
2021/06/17 01:58:32;;;;;;;4.47;3.80;;;21.30;50.90;;;;;;4921948;29;20664;-82
2021/06/17 02:00:59;;;;;;;4.00;3.58;;;21.30;50.90;;;;;;4937764;29;20216;-81
2021/06/17 02:03:27;;;;;;;4.05;3.38;;;21.20;50.90;;;;;;4921941;29;20608;-81
2021/06/17 02:05:52;;;;;;;4.45;3.60;;;21.30;50.90;;;;;;4937798;29;20193;-82
2021/06/17 02:08:20;;;;;;;4.18;3.70;;;21.20;50.90;;;;;;4954485;29;20184;-81
2021/06/17 02:10:48;;;;;;;4.13;3.45;;;21.30;51.00;;;;;;4921722;29;20240;-81
2021/06/17 02:13:16;;;;;;;4.35;3.65;;;21.20;51.00;;;;;;4921483;29;20271;-82
2021/06/17 02:15:45;;;;;;;4.57;3.78;;;21.20;50.90;;;;;;4922060;29;20272;-82
2021/06/17 02:18:12;;;;;;;4.90;3.47;;;21.20;51.00;;;;;;4921782;29;20185;-81
2021/06/17 02:20:39;;;;;;;4.38;3.70;;;21.20;51.00;;;;;;4937525;29;20217;-82
2021/06/17 02:23:08;;;;;;;4.97;4.13;;;21.20;51.00;;;;;;4955140;29;20268;-82
2021/06/17 02:25:33;;;;;;;4.78;3.90;;;21.20;51.00;;;;;;4938356;29;20247;-82
2021/06/17 02:28:03;;;;;;;4.60;3.85;;;21.20;51.00;;;;;;4953932;29;20189;-82
2021/06/17 02:30:31;;;;;;;3.88;3.40;;;21.20;51.00;;;;;;4938513;29;20157;-81
2021/06/17 02:32:59;;;;;;;4.32;3.75;;;21.20;51.00;;;;;;4954073;29;20162;-81
2021/06/17 02:35:26;;;;;;;3.80;3.50;;;21.20;51.00;;;;;;4954094;29;20240;-81
2021/06/17 02:37:55;;;;;;;4.70;4.18;;;21.20;51.00;;;;;;4955374;29;20153;-80
2021/06/17 02:40:21;;;;;;;4.63;3.90;;;21.20;51.00;;;;;;4953929;29;20196;-82
2021/06/17 02:42:51;;;;;;;4.00;3.60;;;21.20;51.00;;;;;;4937588;29;20225;-83
2021/06/17 02:45:19;;;;;;;4.82;3.88;;;21.20;51.10;;;;;;4937406;29;20192;-81
2021/06/17 02:47:48;;;;;;;4.50;3.60;;;21.20;51.00;;;;;;4937243;29;20212;-81
2021/06/17 02:50:16;;;;;;;4.05;3.65;;;21.20;51.00;;;;;;4921539;29;20324;-82
2021/06/17 02:52:42;;;;;;;4.40;4.00;;;21.20;51.10;;;;;;4937466;29;20208;-81
2021/06/17 02:55:08;;;;;;;4.78;4.18;;;21.20;51.10;;;;;;4955018;29;20625;-82
2021/06/17 02:57:41;;;;;;;4.07;3.67;;;21.20;51.10;;;;;;4953721;29;20189;-81
2021/06/17 03:00:12;;;;;;;4.35;3.65;;;21.20;51.20;;;;;;4955170;29;20180;-81
2021/06/17 03:02:59;;;;;;;4.22;3.80;;;21.20;51.20;;;;;;4921685;29;20673;-82
2021/06/17 03:05:51;;;;;;;4.85;3.90;;;21.20;51.20;;;;;;4924674;29;20197;-80
2021/06/17 03:08:20;;;;;;;4.20;3.80;;;21.20;51.10;;;;;;4957675;29;20233;-81
2021/06/17 03:10:49;;;;;;;3.92;3.53;;;21.20;51.20;;;;;;4958453;29;20629;-81
2021/06/17 03:13:14;;;;;;;4.07;3.67;;;21.20;51.10;;;;;;4958352;29;20161;-82
2021/06/17 03:15:41;;;;;;;4.22;3.53;;;21.20;51.20;;;;;;4958307;29;20162;-81
2021/06/17 03:18:09;;;;;;;4.35;3.70;;;21.20;51.20;;;;;;4958400;29;20154;-82
2021/06/17 03:20:37;;;;;;;4.10;3.70;;;21.10;51.20;;;;;;4957072;29;20636;-81
2021/06/17 03:23:10;;;;;;;4.53;3.50;;;21.20;51.20;;;;;;4957272;29;20197;-81
2021/06/17 03:25:36;;;;;;;4.70;3.95;;;21.10;51.20;;;;;;4957015;29;20349;-81
2021/06/17 03:28:02;;;;;;;4.93;3.88;;;21.10;51.30;;;;;;4940912;29;20182;-81
2021/06/17 03:30:28;;;;;;;4.30;3.90;;;21.10;51.30;;;;;;4957162;29;20169;-82
2021/06/17 03:32:57;;;;;;;4.50;3.63;;;21.20;51.30;;;;;;4958150;29;20158;-81
2021/06/17 03:35:27;;;;;;;4.70;3.83;;;21.10;51.30;;;;;;4956775;29;20614;-81
2021/06/17 03:37:54;;;;;;;4.38;3.83;;;21.10;51.30;;;;;;4956895;29;20188;-82
2021/06/17 03:40:20;;;;;;;4.55;3.65;;;21.10;51.40;;;;;;4956902;29;20166;-81
2021/06/17 03:42:47;;;;;;;4.03;3.58;;;21.10;51.30;;;;;;4956532;29;20660;-81
2021/06/17 03:45:13;;;;;;;4.13;3.72;;;21.10;51.30;;;;;;4956665;29;20578;-81
2021/06/17 03:47:41;;;;;;;3.78;3.47;;;21.10;51.30;;;;;;4958217;29;20158;-81
2021/06/17 03:50:08;;;;;;;4.90;3.75;;;21.10;51.40;;;;;;4957868;29;20158;-82
2021/06/17 03:52:34;;;;;;;4.15;3.75;;;21.10;51.40;;;;;;4958030;29;20169;-80
2021/06/17 03:54:59;;;;;;;5.07;3.90;;;21.10;51.40;;;;;;4956553;29;20196;-81
2021/06/17 03:57:25;;;;;;;4.38;3.58;;;21.10;51.40;;;;;;4940806;29;20181;-80
2021/06/17 03:59:52;;;;;;;4.05;3.70;;;21.10;51.40;;;;;;4957658;29;20651;-82
2021/06/17 04:02:18;;;;;;;3.70;3.40;;;21.10;51.40;;;;;;4957845;28;20200;-82
2021/06/17 04:04:45;;;;;;;4.38;3.83;;;21.10;51.40;;;;;;4956413;29;20157;-81
2021/06/17 04:07:14;;;;;;;4.32;3.65;;;21.10;51.40;;;;;;4956314;29;20161;-81
2021/06/17 04:09:43;;;;;;;4.45;3.65;;;21.10;51.40;;;;;;4940560;29;20745;-82
2021/06/17 04:12:11;;;;;;;4.28;3.60;;;21.10;51.40;;;;;;4956618;29;20173;-81
2021/06/17 04:14:38;;;;;;;3.90;3.50;;;21.10;52.00;;;;;;4957575;29;20248;-81
2021/06/17 04:17:04;;;;;;;4.75;3.72;;;21.10;52.80;;;;;;4957070;28;20220;-81
2021/06/17 04:19:30;;;;;;;4.43;3.53;;;21.10;53.40;;;;;;4956412;29;20260;-80
2021/06/17 04:21:58;;;;;;;4.25;3.50;;;21.10;54.00;;;;;;4956458;29;20181;-81
2021/06/17 04:24:24;;;;;;;4.13;3.47;;;21.10;54.00;;;;;;4940990;29;20157;-82
2021/06/17 04:26:52;;;;;;;3.85;3.42;;;21.10;54.30;;;;;;4956753;29;20300;-81
2021/06/17 04:29:17;;;;;;;3.65;3.30;;;21.20;53.90;;;;;;4957774;29;20188;-82
2021/06/17 04:31:48;;;;;;;4.82;3.95;;;21.30;53.60;;;;;;4957570;29;20625;-81
2021/06/17 04:34:17;;;;;;;4.00;3.60;;;21.40;53.40;;;;;;4940148;29;20185;-81
2021/06/17 04:36:45;;;;;;;4.90;3.60;;;21.40;53.30;;;;;;4939798;29;20276;-81
2021/06/17 04:39:15;;;;;;;3.90;3.50;;;21.40;52.90;;;;;;4939787;29;20188;-81
2021/06/17 04:41:43;;;;;;;3.67;3.38;;;21.40;53.10;;;;;;4939579;29;20213;-81
2021/06/17 04:44:09;;;;;;;4.38;3.88;;;21.40;52.50;;;;;;4955925;29;20158;-82
2021/06/17 04:46:34;;;;;;;4.22;3.83;;;21.50;52.60;;;;;;4955906;29;20522;-81
2021/06/17 04:49:00;;;;;;;3.80;3.42;;;21.50;52.50;;;;;;4956948;29;20240;-82
2021/06/17 04:51:26;;;;;;;4.05;3.65;;;21.50;52.60;;;;;;4955829;29;20158;-81
2021/06/17 04:53:54;;;;;;;4.07;3.67;;;21.50;52.60;;;;;;4957033;29;20169;-81
2021/06/17 04:56:20;;;;;;;4.95;3.80;;;21.50;52.10;;;;;;4956830;29;20209;-80
2021/06/17 04:58:49;;;;;;;4.07;3.60;;;21.50;52.40;;;;;;4957028;29;20161;-81
2021/06/17 05:01:17;;;;;;;4.30;3.80;;;21.50;52.20;;;;;;4957014;29;20162;-81
2021/06/17 05:03:43;;;;;;;4.70;3.83;;;21.60;52.30;;;;;;4940416;29;20185;-81
2021/06/17 05:06:10;;;;;;;4.20;3.65;;;21.60;51.90;;;;;;4955676;29;20307;-82
2021/06/17 05:11:20;;;;;;;3.65;3.28;;;21.60;52.40;;;;;;4957192;29;20162;-81
2021/06/17 05:13:46;;;;;;;3.90;3.50;;;21.70;52.30;;;;;;4956956;29;20158;-81
2021/06/17 05:16:11;;;;;;;3.88;3.47;;;21.60;52.30;;;;;;4956593;29;20213;-82
2021/06/17 05:18:37;;;;;;;4.45;3.72;;;21.50;52.40;;;;;;4957016;29;20168;-81
2021/06/17 05:21:03;;;;;;;3.83;3.40;;;21.60;52.50;;;;;;4956597;29;20158;-82
2021/06/17 05:23:30;;;;;;;4.55;3.50;;;21.60;52.40;;;;;;4956863;28;20272;-81
2021/06/17 05:25:57;;;;;;;3.90;3.47;;;21.60;52.40;;;;;;4922813;29;20225;-80
2021/06/17 05:28:25;;;;;;;4.10;3.70;;;21.70;52.50;;;;;;4955683;28;20260;-79
2021/06/17 05:30:52;;;;;;;3.92;3.58;;;21.70;52.50;;;;;;4938600;29;20192;-81
2021/06/17 05:33:19;;;;;;;4.57;3.65;;;21.70;51.90;;;;;;4940447;29;20188;-80
2021/06/17 05:35:46;;;;;;;4.15;3.75;;;21.70;52.30;;;;;;4955444;29;20165;-80
2021/06/17 05:38:15;;;;;;;4.10;3.50;;;21.70;53.00;;;;;;4957656;28;20182;-80
2021/06/17 05:40:43;;;;;;;4.05;3.65;;;21.70;52.50;;;;;;4942244;29;20196;-79
2021/06/17 05:43:09;;;;;;;3.70;3.38;;;21.70;52.60;;;;;;4925294;29;20221;-80
2021/06/17 05:45:37;;;;;;;4.55;3.85;;;21.60;53.00;;;;;;4941614;29;20166;-80
2021/06/17 05:48:05;;;;;;;4.35;3.65;;;21.60;52.70;;;;;;4940795;29;20185;-81
2021/06/17 05:50:32;;;;;;;5.15;4.22;;;21.60;53.10;;;;;;4923014;29;20184;-82
2021/06/17 05:52:58;;;;;;;4.90;3.70;;;21.70;53.30;;;;;;4923035;29;20669;-80
2021/06/17 05:55:24;;;;;;;4.07;3.50;;;21.70;53.00;;;;;;4957205;29;20249;-80
2021/06/17 05:57:49;;;;;;;4.97;3.70;;;21.60;52.90;;;;;;4954794;29;20180;-81
2021/06/17 06:00:16;;;;;;;4.03;3.60;;;21.60;53.20;;;;;;4956435;29;20205;-81
2021/06/17 06:02:43;;;;;;;5.55;4.13;;;21.60;52.60;;;;;;4954431;29;20193;-82
2021/06/17 06:05:08;;;;;;;3.88;3.47;;;21.60;52.70;;;;;;4956251;29;20624;-81
2021/06/17 06:07:34;;;;;;;4.03;3.60;;;21.60;52.80;;;;;;4956693;28;20157;-81
2021/06/17 06:10:00;;;;;;;4.65;3.60;;;21.60;52.90;;;;;;4955978;28;20165;-80
2021/06/17 06:12:26;;;;;;;3.50;3.20;;;21.70;52.90;;;;;;4955889;28;20261;-81
2021/06/17 06:14:52;;;;;;;4.90;3.42;;;21.70;52.80;;;;;;4954393;29;20232;-82
2021/06/17 06:17:18;;;;;;;4.57;3.47;;;21.60;53.00;;;;;;4955594;29;20196;-81
2021/06/17 06:19:44;;;;;;;4.40;3.60;;;21.70;53.40;;;;;;4954780;29;20659;-81
2021/06/17 06:22:11;;;;;;;4.03;3.63;;;21.70;53.00;;;;;;4955364;29;20189;-81
2021/06/17 06:24:37;;;;;;;3.75;3.45;;;21.70;53.20;;;;;;4956037;29;20601;-80
2021/06/17 06:27:04;;;;;;;4.30;3.47;;;21.70;53.00;;;;;;4956237;28;20224;-81
2021/06/17 06:29:29;;;;;;;4.30;3.53;;;21.70;53.70;;;;;;4955850;28;20590;-81
2021/06/17 06:31:56;;;;;;;4.20;3.80;;;21.80;53.00;;;;;;4955362;29;20196;-80
2021/06/17 06:34:21;;;;;;;4.00;3.60;;;21.70;53.00;;;;;;4954004;29;20225;-81
2021/06/17 06:36:47;;;;;;;3.78;3.45;;;21.80;52.80;;;;;;4955065;28;20691;-81
2021/06/17 06:39:14;;;;;;;3.95;3.55;;;21.70;52.50;;;;;;4954775;28;20646;-80
2021/06/17 06:41:41;;;;;;;3.65;3.30;;;21.70;53.20;;;;;;4957710;29;20189;-81
2021/06/17 06:44:06;;;;;;;3.78;3.35;;;21.70;53.00;;;;;;4958899;28;20297;-81
2021/06/17 06:46:32;;;;;;;4.10;3.70;;;21.70;53.40;;;;;;4959902;28;20205;-81
2021/06/17 06:48:58;;;;;;;4.00;3.50;;;21.70;53.10;;;;;;4961624;29;20162;-81
2021/06/17 06:51:25;;;;;;;3.83;3.40;;;21.70;53.00;;;;;;4959945;29;20150;-84
2021/06/17 06:53:50;;;;;;;3.78;3.30;;;21.70;53.00;;;;;;4960010;29;20149;-82
2021/06/17 06:56:16;;;;;;;3.75;3.38;;;21.60;53.60;;;;;;4959951;29;20172;-82
2021/06/17 06:58:43;;;;;;;4.93;3.40;;;21.70;53.10;;;;;;4942637;29;20178;-81
2021/06/17 07:01:08;;;;;;;3.78;3.47;;;21.70;54.00;;;;;;4958189;29;20241;-81
2021/06/17 07:03:34;;;;;;;3.70;3.40;;;21.80;53.10;;;;;;4958688;29;20280;-81
2021/06/17 07:06:01;;;;;;;4.38;3.70;;;21.90;52.50;;;;;;4957653;29;20173;-81
2021/06/17 07:08:30;;;;;;;3.90;3.50;;;21.80;53.00;;;;;;4958803;28;20168;-81
2021/06/17 07:10:59;;;;;;;4.32;3.75;;;21.80;53.30;;;;;;4940852;29;20186;-81
2021/06/17 07:13:29;;;;;;;5.18;3.63;;;21.90;53.70;;;;;;4941069;29;20601;-80
2021/06/17 07:15:57;;;;;;;3.50;3.20;;;21.90;53.40;;;;;;4909607;29;20185;-81
2021/06/17 07:18:26;;;;;;;3.83;3.33;;;21.80;52.80;;;;;;4941289;29;20189;-81
2021/06/17 07:20:55;;;;;;;4.22;3.80;;;21.80;53.20;;;;;;4941196;29;20221;-81
2021/06/17 07:23:27;;;;;;;3.50;3.20;;;21.90;53.30;;;;;;4941201;29;20315;-82
2021/06/17 07:25:53;;;;;;;3.58;3.10;;;21.80;52.50;;;;;;4937572;29;20222;-82
2021/06/17 07:28:21;;;;;;;3.40;3.00;;;22.00;53.40;;;;;;4939026;29;20185;-82
2021/06/17 07:30:50;;;;;;;3.58;3.15;;;21.90;53.00;;;;;;4921988;29;20236;-82
2021/06/17 07:33:15;;;;;;;3.85;3.40;;;22.00;52.50;;;;;;4906573;29;20217;-81
2021/06/17 07:35:41;;;;;;;3.60;3.30;;;21.90;52.50;;;;;;4922934;29;20178;-81
2021/06/17 07:38:07;;;;;;;4.50;3.63;;;21.90;53.00;;;;;;4939343;29;20289;-82
2021/06/17 07:40:32;;;;;;;4.60;3.42;;;22.00;52.20;;;;;;4939768;29;20154;-82
2021/06/17 07:42:58;;;;;;;4.93;3.47;;;22.10;53.00;;;;;;4940259;29;20194;-81
2021/06/17 07:45:29;;;;;;;3.88;3.47;;;22.20;52.80;;;;;;4940103;29;20158;-81
2021/06/17 07:47:55;;;;;;;3.47;3.17;;;22.10;52.40;;;;;;4940193;29;20233;-81
2021/06/17 07:50:22;;;;;;;3.88;3.50;;;22.00;52.80;;;;;;4938098;29;20166;-81
2021/06/17 07:52:50;;;;;;;4.18;3.42;;;22.00;52.50;;;;;;4937635;29;20186;-82
2021/06/17 07:55:18;;;;;;;5.40;3.78;;;22.00;52.70;;;;;;4922388;29;20194;-81
2021/06/17 07:57:45;;;;;;;3.50;3.15;;;22.00;52.90;;;;;;4938817;29;20214;-81
2021/06/17 08:00:13;;;;;;;3.97;3.53;;;22.00;52.60;;;;;;4938448;29;20248;-81
2021/06/17 08:02:41;;;;;;;3.90;3.50;;;22.10;52.60;;;;;;4938137;29;20218;-83
2021/06/17 08:05:08;;;;;;;3.65;3.35;;;22.10;52.50;;;;;;4922229;29;20273;-82
2021/06/17 08:07:34;;;;;;;3.70;3.40;;;22.10;52.40;;;;;;4923439;29;20174;-82
2021/06/17 08:10:03;;;;;;;4.57;3.50;;;22.00;52.10;;;;;;4938789;29;20169;-82
2021/06/17 08:12:29;;;;;;;4.78;3.78;;;22.00;52.90;;;;;;4939953;29;20162;-82
2021/06/17 08:14:55;;;;;;;4.28;3.22;;;22.10;52.40;;;;;;4940300;29;20173;-82
2021/06/17 08:17:21;;;;;;;3.58;3.28;;;22.10;52.70;;;;;;4938470;29;20166;-82
2021/06/17 08:19:46;;;;;;;5.03;3.38;;;22.10;52.30;;;;;;4938559;29;20519;-82
2021/06/17 08:22:12;;;;;;;3.95;3.40;;;22.10;52.40;;;;;;4938947;29;20193;-82
2021/06/17 08:24:40;;;;;;;3.70;3.40;;;22.10;52.60;;;;;;4941035;29;20165;-82
2021/06/17 08:27:09;;;;;;;3.92;3.53;;;22.10;52.20;;;;;;4956367;29;20220;-81
2021/06/17 08:29:35;;;;;;;3.50;3.17;;;22.10;52.30;;;;;;4925681;29;20185;-82
2021/06/17 08:32:00;;;;;;;4.28;3.45;;;22.00;52.60;;;;;;4958042;29;20172;-82
2021/06/17 08:34:26;;;;;;;3.58;3.22;;;22.10;53.30;;;;;;4958623;29;20164;-82
2021/06/17 08:36:52;;;;;;;3.58;3.25;;;22.20;52.40;;;;;;4941894;29;20173;-82
2021/06/17 08:39:19;;;;;;;3.83;3.42;;;22.20;52.30;;;;;;4957959;29;20172;-82
2021/06/17 08:41:45;;;;;;;4.45;3.58;;;22.30;52.60;;;;;;4958310;29;20196;-82
2021/06/17 08:44:11;;;;;;;4.90;3.40;;;22.30;52.30;;;;;;4942359;29;20177;-81
2021/06/17 08:46:38;;;;;;;3.90;3.55;;;22.40;52.40;;;;;;4959653;29;20588;-81
2021/06/17 08:49:04;;;;;;;4.47;3.72;;;22.40;52.00;;;;;;4957625;29;20158;-82
2021/06/17 08:51:31;;;;;;;4.20;3.40;;;22.30;52.10;;;;;;4942268;29;20197;-82
2021/06/17 08:53:57;;;;;;;4.45;3.67;;;22.40;52.00;;;;;;4958792;29;20162;-82
2021/06/17 08:56:24;;;;;;;4.18;3.75;;;22.40;52.00;;;;;;4958393;29;20237;-81
2021/06/17 08:58:53;;;;;;;3.53;3.22;;;22.40;52.00;;;;;;4942430;29;20201;-82
2021/06/17 09:01:21;;;;;;;4.18;3.35;;;22.40;52.00;;;;;;4941094;29;20177;-82
2021/06/17 09:03:46;;;;;;;3.90;3.50;;;22.50;51.90;;;;;;4943080;29;20548;-81
2021/06/17 09:06:12;;;;;;;4.03;3.63;;;22.50;51.60;;;;;;4943513;29;20172;-82
2021/06/17 09:08:38;;;;;;;4.13;3.72;;;22.50;51.60;;;;;;4958650;29;20158;-82
2021/06/17 09:11:05;;;;;;;4.00;3.60;;;22.40;51.90;;;;;;4961332;29;20157;-81
2021/06/17 09:13:34;;;;;;;4.95;4.15;;;22.50;52.00;;;;;;4943424;29;20200;-82
2021/06/17 09:16:00;;;;;;;5.07;3.70;;;22.50;51.90;;;;;;4957415;29;20173;-80
2021/06/17 09:18:31;;;;;;;4.43;3.78;;;22.40;52.20;;;;;;4956260;29;20158;-81
2021/06/17 09:21:10;;;;;;;4.05;3.50;;;22.50;52.20;;;;;;4957433;29;20158;-82
2021/06/17 09:23:38;;;;;;;3.85;3.40;;;22.40;52.10;;;;;;4956452;29;20189;-82
2021/06/17 09:26:08;;;;;;;4.32;3.72;;;22.40;52.40;;;;;;4941545;29;20252;-82
2021/06/17 09:29:00;;;;;;;4.60;3.47;;;22.30;52.00;;;;;;4942607;29;20196;-82
2021/06/17 09:31:29;;;;;;;4.88;3.40;;;22.40;52.40;;;;;;4958076;29;20174;-82
2021/06/17 09:33:55;;;;;;;3.97;3.60;;;22.50;52.00;;;;;;4958220;29;20629;-82
2021/06/17 09:36:22;;;;;;;3.75;3.45;;;22.40;51.70;;;;;;4958452;29;20161;-82
2021/06/17 09:38:50;;;;;;;3.55;3.25;;;22.40;51.90;;;;;;4958101;29;20154;-81
2021/06/17 09:41:32;;;;;;;5.00;3.50;;;22.40;52.00;;;;;;4959876;28;20169;-81
2021/06/17 09:43:58;;;;;;;4.30;3.65;;;22.30;52.00;;;;;;4956435;29;20169;-83
2021/06/17 09:46:24;;;;;;;4.07;3.67;;;22.30;51.90;;;;;;4955884;29;20209;-82
2021/06/17 09:48:50;;;;;;;4.38;3.50;;;22.30;52.00;;;;;;4956187;29;20173;-82
2021/06/17 09:51:34;;;;;;;4.50;3.85;;;22.30;52.00;;;;;;4957289;28;20653;-82
2021/06/17 09:54:14;;;;;;;4.10;3.70;;;22.30;51.90;;;;;;4935055;29;20839;-82
2021/06/17 09:56:40;;;;;;;4.20;3.80;;;22.30;52.00;;;;;;4967978;28;20162;-82
2021/06/17 09:59:09;;;;;;;4.40;3.63;;;22.30;52.10;;;;;;4934363;29;20533;-82
2021/06/17 10:01:37;;;;;;;4.22;3.78;;;22.20;52.20;;;;;;4937987;29;20237;-82
2021/06/17 10:04:07;;;;;;;4.18;3.78;;;22.30;52.20;;;;;;4969471;28;20229;-82
2021/06/17 10:06:35;;;;;;;4.00;3.47;;;22.30;51.90;;;;;;4953486;29;20154;-83
2021/06/17 10:09:04;;;;;;;4.00;3.50;;;22.40;51.90;;;;;;4970126;28;20154;-83
2021/06/17 10:11:30;;;;;;;4.05;3.65;;;22.40;51.90;;;;;;4969297;28;20403;-85
2021/06/17 10:13:56;;;;;;;4.05;3.65;;;22.40;52.60;;;;;;4968314;28;20186;-83
2021/06/17 10:16:22;;;;;;;4.05;3.47;;;22.30;51.90;;;;;;4936395;29;20178;-83
2021/06/17 10:18:47;;;;;;;3.85;3.45;;;22.40;51.90;;;;;;4935016;29;20162;-84
2021/06/17 10:21:14;;;;;;;4.47;3.70;;;22.40;51.70;;;;;;4951170;29;20182;-84
2021/06/17 10:23:42;;;;;;;3.78;3.47;;;22.40;51.80;;;;;;4950691;29;20185;-84
2021/06/17 10:26:08;;;;;;;4.22;3.70;;;22.30;51.70;;;;;;4951317;29;20268;-85
2021/06/17 10:28:51;;;;;;;4.13;3.30;;;22.50;51.50;;;;;;4939605;29;20173;-84
2021/06/17 10:31:44;;;;;;;4.20;3.20;;;22.60;51.20;;;;;;4961558;29;20170;-85
2021/06/17 10:34:31;;;;;;;4.10;3.70;;;22.60;51.30;;;;;;4973222;28;20177;-84
2021/06/17 10:37:13;;;;;;;4.55;3.70;;;22.50;51.50;;;;;;4953519;29;20545;-85
2021/06/17 10:39:45;;;;;;;3.90;3.60;;;22.50;51.60;;;;;;4966902;28;20154;-84
2021/06/17 10:42:15;;;;;;;4.35;3.70;;;22.40;51.70;;;;;;4967725;28;20287;-85
2021/06/17 10:44:54;;;;;;;4.00;3.60;;;22.50;51.40;;;;;;4950439;29;20201;-84
2021/06/17 10:47:53;;;;;;;5.03;3.75;;;22.50;51.40;;;;;;4950298;29;20241;-85
2021/06/17 10:50:21;;;;;;;3.95;3.55;;;22.50;51.20;;;;;;4948121;29;20173;-84
2021/06/17 10:52:51;;;;;;;4.35;3.38;;;22.60;50.90;;;;;;4940308;29;20202;-84
2021/06/17 10:55:18;;;;;;;4.05;3.50;;;22.60;50.80;;;;;;4955619;29;20174;-87
2021/06/17 10:57:54;;;;;;;4.45;3.63;;;22.60;50.80;;;;;;4935854;29;20181;-83
2021/06/17 11:00:44;;;;;;;4.57;3.80;;;22.60;50.60;;;;;;4950300;29;20237;-84
2021/06/17 11:03:38;;;;;;;4.00;3.42;;;22.60;50.80;;;;;;4949451;29;20278;-84
2021/06/17 11:06:05;;;;;;;3.65;3.35;;;22.60;50.30;;;;;;4937452;29;20162;-85
2021/06/17 11:08:30;;;;;;;5.07;3.67;;;22.60;50.40;;;;;;4936866;29;20595;-86
2021/06/17 11:11:04;;;;;;;4.10;3.70;;;22.60;50.70;;;;;;4968129;28;20190;-84
2021/06/17 11:13:34;;;;;;;4.30;3.90;;;22.60;50.80;;;;;;4966853;28;20186;-84
2021/06/17 11:16:23;;;;;;;4.07;3.67;;;22.60;51.10;;;;;;4934302;29;20174;-86
2021/06/17 11:18:55;;;;;;;4.78;3.60;;;22.50;51.10;;;;;;4947926;29;21128;-85
2021/06/17 11:21:39;;;;;;;3.88;3.58;;;22.50;51.20;;;;;;4949811;29;20158;-85
2021/06/17 11:24:27;;;;;;;3.70;3.40;;;22.50;51.20;;;;;;4950705;29;20225;-86
2021/06/17 11:26:53;;;;;;;4.38;3.67;;;22.40;51.40;;;;;;4950709;28;20697;-84
2021/06/17 11:29:21;;;;;;;3.85;3.55;;;22.50;51.30;;;;;;4954056;29;20162;-85
2021/06/17 11:31:50;;;;;;;4.20;3.80;;;22.50;51.40;;;;;;4938118;29;20257;-84
2021/06/17 11:34:37;;;;;;;4.05;3.65;;;22.40;51.30;;;;;;4953486;29;20161;-84
2021/06/17 11:37:04;;;;;;;3.90;3.50;;;22.50;51.40;;;;;;4938769;29;20162;-86
2021/06/17 11:39:34;;;;;;;4.05;3.65;;;22.50;51.90;;;;;;4937748;29;20170;-87
2021/06/17 11:42:02;;;;;;;3.80;3.47;;;22.50;51.10;;;;;;4921138;29;20214;-86
2021/06/17 11:44:29;;;;;;;4.03;3.63;;;22.60;50.50;;;;;;4939780;29;20151;-85
2021/06/17 11:47:07;;;;;;;4.03;3.63;;;22.60;50.90;;;;;;4969473;28;20185;-85
2021/06/17 11:49:35;;;;;;;3.90;3.60;;;22.60;51.10;;;;;;4969259;28;20154;-86
2021/06/17 11:52:01;;;;;;;4.45;3.72;;;22.50;50.80;;;;;;4969582;28;20158;-83
2021/06/17 11:54:27;;;;;;;4.72;3.45;;;22.60;50.90;;;;;;4969771;28;20162;-83
2021/06/17 11:56:58;;;;;;;4.13;3.58;;;22.60;50.50;;;;;;4969175;28;20170;-86
2021/06/17 11:59:28;;;;;;;5.00;3.40;;;22.60;50.10;;;;;;4953260;29;20511;-84
2021/06/17 12:02:16;;;;;;;5.18;3.72;;;22.60;50.40;;;;;;4969442;28;20190;-84
2021/06/17 12:04:55;;;;;;;3.90;3.60;;;22.60;50.40;;;;;;4939451;29;20164;-86
2021/06/17 12:07:25;;;;;;;3.90;3.50;;;22.60;50.50;;;;;;4951885;29;20261;-83
2021/06/17 12:09:53;;;;;;;3.60;3.30;;;22.60;51.10;;;;;;4952863;29;20245;-87
2021/06/17 12:12:26;;;;;;;3.70;3.40;;;22.60;50.50;;;;;;4969361;28;20165;-85
2021/06/17 12:14:54;;;;;;;4.78;3.50;;;22.60;50.50;;;;;;4969412;28;20209;-87
2021/06/17 12:17:29;;;;;;;3.72;3.42;;;22.60;50.80;;;;;;4969541;28;20158;-84
2021/06/17 12:19:56;;;;;;;3.78;3.17;;;22.50;50.40;;;;;;4969276;28;20196;-85
2021/06/17 12:22:22;;;;;;;4.00;3.60;;;22.60;49.90;;;;;;4952881;29;20204;-83
2021/06/17 12:24:48;;;;;;;4.20;3.10;;;22.60;50.20;;;;;;4938243;29;20158;-86
2021/06/17 12:27:14;;;;;;;3.75;3.30;;;22.60;49.30;;;;;;4936662;29;20261;-84
2021/06/17 12:29:40;;;;;;;3.72;3.42;;;22.70;48.50;;;;;;4937930;29;20582;-83
2021/06/17 12:32:06;;;;;;;4.07;3.55;;;22.70;50.10;;;;;;4968700;28;20168;-86
2021/06/17 12:34:44;;;;;;;4.30;3.50;;;22.60;49.90;;;;;;4937105;29;20307;-84
2021/06/17 12:37:10;;;;;;;4.38;3.53;;;22.60;49.10;;;;;;4903795;29;20265;-88
2021/06/17 12:39:41;;;;;;;3.92;3.40;;;22.70;48.90;;;;;;4936769;29;20221;-84
2021/06/17 12:42:11;;;;;;;3.85;3.55;;;22.70;49.60;;;;;;4905084;29;20275;-85
2021/06/17 12:44:39;;;;;;;4.03;3.63;;;22.70;49.20;;;;;;4969215;28;20257;-87
2021/06/17 12:47:14;;;;;;;3.60;3.30;;;22.70;48.90;;;;;;4969542;28;20159;-84
2021/06/17 12:52:19;;;;;;;3.92;3.45;;;22.70;48.50;;;;;;4965945;28;20177;-84
2021/06/17 12:54:51;;;;;;;4.13;3.60;;;22.60;49.00;;;;;;4968439;28;20202;-83
2021/06/17 12:57:19;;;;;;;4.88;3.10;;;22.60;49.20;;;;;;4936152;29;20170;-84
2021/06/17 12:59:49;;;;;;;3.70;3.38;;;22.70;48.90;;;;;;4952322;29;20699;-83
2021/06/17 13:02:37;;;;;;;3.90;3.60;;;22.70;50.00;;;;;;4968068;28;20213;-86